NCAR-RAP Real-Time Weather Data

Output produced by METARs form (20 February 2019  18:11 UTC)
found at http://weather.rap.ucar.edu/surface/
 
RJTI 200700Z 09011KT 9999 FEW030 BKN040 15/10 Q1010
RJTI 200600Z 10012KT 9999 SCT030 17/11 Q1009
RJTI 200500Z 12012KT 9999 SCT030 BKN050 15/11 Q1009
RJTI 200400Z 10008KT 050V140 9999 FEW030 SCT040 BKN070 19/12 Q1009
RJTI 200300Z 05004KT 020V090 6000 FEW030 17/08 Q1010
RJTI 200200Z 02006KT 330V060 6000 NSC 16/08 Q1011
RJTI 200100Z 03005KT 350V060 6000 NSC 13/07 Q1011
RJTI 200000Z 03006KT 010V070 5000 BR NSC 10/07 Q1011
RJTI 192330Z 13003KT 070V160 5000 BR NSC 08/05 Q1011
RJTI 190700Z 21010KT 180V250 8000 FEW020 SCT030 BKN070 12/06 Q1018
RJTI 190600Z 12003KT 8000 FEW030 SCT080 BKN120 09/06 Q1019
RJTI 190500Z VRB02KT 8000 -RA FEW030 SCT050 BKN100 09/05 Q1020
RJTI 190400Z 14003KT 9999 -RA FEW030 BKN045 OVC120 09/03 Q1021
RJTI 190300Z 12004KT 9999 -RA FEW035 SCT045 BKN080 09/03 Q1023
RJTI 190200Z 14003KT 100V180 9999 FEW035 SCT045 BKN100 09/02 Q1024
RJTI 190100Z VRB02KT 9999 FEW035 BKN100 09/00 Q1025
RJTI 190000Z VRB01KT 9999 FEW035 BKN100 09/M00 Q1026
RJTI 182330Z VRB02KT 9999 FEW040 BKN120 08/M01 Q1026
RJTI 180700Z 12005KT 9999 FEW040 12/03 Q1023